createdAt,value
2022-12-20T00:01:21.122Z,25.95
2022-12-20T00:03:51.168Z,27.60
2022-12-20T00:06:18.017Z,28.03
2022-12-20T00:08:45.448Z,28.17
2022-12-20T00:11:12.986Z,27.90
2022-12-20T00:13:40.411Z,27.20
2022-12-20T00:16:12.631Z,26.80
2022-12-20T00:18:40.784Z,27.37
2022-12-20T00:21:10.388Z,26.80
2022-12-20T00:23:37.643Z,26.15
2022-12-20T00:26:11.123Z,26.83
2022-12-20T00:28:39.051Z,26.83
2022-12-20T00:31:06.130Z,28.77
2022-12-20T00:33:33.897Z,27.63
2022-12-20T00:36:00.509Z,27.50
2022-12-20T00:38:27.668Z,27.25
2022-12-20T00:41:06.605Z,26.80
2022-12-20T00:43:33.892Z,27.75
2022-12-20T00:46:01.473Z,26.97
2022-12-20T00:48:29.851Z,26.53
2022-12-20T00:51:05.034Z,26.47
2022-12-20T00:53:32.672Z,25.13
2022-12-20T00:55:59.784Z,28.20
2022-12-20T00:58:27.088Z,26.20
2022-12-20T01:00:56.523Z,25.53
2022-12-20T01:03:25.005Z,27.90
2022-12-20T01:05:53.210Z,26.60
2022-12-20T01:08:21.195Z,27.17
2022-12-20T01:10:48.131Z,26.00
2022-12-20T01:13:14.638Z,25.83
2022-12-20T01:15:41.155Z,25.73
2022-12-20T01:18:07.638Z,26.95
2022-12-20T01:20:34.208Z,27.92
2022-12-20T01:23:00.747Z,26.95
2022-12-20T01:25:27.308Z,27.00
2022-12-20T01:27:53.889Z,26.65
2022-12-20T01:30:20.407Z,25.23
2022-12-20T01:32:46.882Z,26.25
2022-12-20T01:35:13.403Z,26.48
2022-12-20T01:37:39.937Z,26.85
2022-12-20T01:40:07.311Z,25.77
2022-12-20T01:42:34.084Z,26.23
2022-12-20T01:45:00.656Z,28.23
2022-12-20T01:47:32.710Z,25.95
2022-12-20T01:50:02.319Z,26.92
2022-12-20T01:52:34.502Z,24.75
2022-12-20T01:55:20.417Z,26.63
2022-12-20T01:57:49.160Z,27.05
2022-12-20T02:00:17.389Z,25.92
2022-12-20T02:02:47.819Z,26.30
2022-12-20T02:05:15.461Z,26.65
2022-12-20T02:07:44.332Z,27.87
2022-12-20T02:10:12.688Z,26.17
2022-12-20T02:12:42.779Z,28.85
2022-12-20T02:15:27.688Z,25.73
2022-12-20T02:18:20.470Z,25.50
2022-12-20T02:21:05.672Z,29.60
2022-12-20T02:24:13.430Z,26.53
2022-12-20T02:27:17.623Z,25.20
2022-12-20T02:30:08.963Z,25.77
2022-12-20T02:33:01.789Z,26.75
2022-12-20T02:35:32.225Z,27.10
2022-12-20T02:41:51.762Z,27.83
2022-12-20T02:44:39.518Z,25.53
2022-12-20T02:47:10.939Z,24.70
2022-12-20T02:49:41.317Z,26.57
2022-12-20T02:52:10.163Z,26.83
2022-12-20T02:54:37.283Z,26.55
2022-12-20T02:57:29.645Z,26.17
2022-12-20T03:00:07.106Z,27.03
2022-12-20T03:02:54.534Z,25.97
2022-12-20T03:05:23.875Z,27.13
2022-12-20T03:07:50.848Z,27.30
2022-12-20T03:12:44.751Z,28.03
2022-12-20T03:15:11.403Z,25.58
2022-12-20T03:17:37.949Z,25.67
2022-12-20T03:20:06.359Z,27.83
2022-12-20T03:22:33.959Z,25.97
2022-12-20T03:25:01.099Z,25.95
2022-12-20T03:27:28.827Z,25.48
2022-12-20T03:29:55.904Z,27.55
2022-12-20T03:34:49.191Z,26.17
2022-12-20T03:37:16.423Z,26.17
2022-12-20T03:39:43.009Z,25.83
2022-12-20T03:42:09.891Z,26.10
2022-12-20T03:44:36.750Z,25.60
2022-12-20T03:47:03.416Z,27.45
2022-12-20T03:49:29.926Z,27.60
2022-12-20T03:51:56.468Z,25.27
2022-12-20T03:54:23.124Z,26.80
2022-12-20T03:56:49.639Z,26.60
2022-12-20T03:59:16.545Z,25.95
2022-12-20T04:01:43.145Z,25.80
2022-12-20T04:04:12.491Z,25.23
2022-12-20T04:06:39.254Z,25.85
2022-12-20T04:09:05.992Z,27.77
2022-12-20T04:11:32.610Z,24.88
2022-12-20T04:13:59.121Z,25.80
2022-12-20T04:16:28.395Z,25.33
2022-12-20T04:18:55.101Z,26.07
2022-12-20T04:21:26.469Z,27.13
2022-12-20T04:23:53.144Z,28.88
2022-12-20T04:26:19.753Z,25.42
2022-12-20T04:28:46.338Z,25.33
2022-12-20T04:31:15.090Z,26.67
2022-12-20T04:33:46.112Z,26.60
2022-12-20T04:36:13.342Z,26.83
2022-12-20T04:38:39.915Z,24.38
2022-12-20T04:41:07.019Z,26.33
2022-12-20T04:43:33.749Z,26.52
2022-12-20T04:46:00.390Z,25.20
2022-12-20T04:51:16.093Z,25.20
2022-12-20T04:53:48.527Z,26.20
2022-12-20T04:56:29.183Z,26.40
2022-12-20T04:58:57.503Z,26.13
2022-12-20T05:01:24.413Z,25.67
2022-12-20T05:09:07.890Z,24.60
2022-12-20T05:11:34.503Z,26.90
2022-12-20T05:14:01.016Z,25.25
2022-12-20T05:16:27.616Z,24.88
2022-12-20T05:18:54.370Z,24.77
2022-12-20T05:21:39.320Z,25.48
2022-12-20T05:24:25.314Z,25.60
2022-12-20T05:26:52.044Z,25.80
2022-12-20T05:29:18.729Z,28.73
2022-12-20T05:31:45.384Z,26.50
2022-12-20T05:34:12.071Z,25.63
2022-12-20T05:36:38.639Z,25.38
2022-12-20T05:39:06.138Z,26.15
2022-12-20T05:41:32.763Z,25.87
2022-12-20T05:43:59.369Z,24.02
2022-12-20T05:46:26.151Z,25.80
2022-12-20T05:48:52.973Z,24.98
2022-12-20T05:51:19.514Z,25.17
2022-12-20T05:53:46.163Z,24.67
2022-12-20T05:56:12.703Z,23.88
2022-12-20T05:58:40.315Z,24.52
2022-12-20T06:01:08.376Z,24.33
2022-12-20T06:03:35.083Z,25.20
2022-12-20T06:06:01.873Z,24.05
2022-12-20T06:08:28.516Z,24.58
2022-12-20T06:10:55.249Z,24.88
2022-12-20T06:13:21.814Z,24.80
2022-12-20T06:15:48.560Z,25.52
2022-12-20T06:18:15.153Z,25.13
2022-12-20T06:20:41.783Z,23.20
2022-12-20T06:23:09.746Z,22.92
2022-12-20T06:25:39.660Z,24.73
2022-12-20T06:28:07.710Z,24.03
2022-12-20T06:30:35.015Z,25.17
2022-12-20T06:33:02.399Z,25.67
2022-12-20T06:35:29.901Z,22.85
2022-12-20T06:37:56.851Z,24.27
2022-12-20T06:40:23.772Z,23.20
2022-12-20T06:45:31.747Z,22.10
2022-12-20T06:48:01.243Z,24.37
2022-12-20T06:50:28.024Z,23.48
2022-12-20T06:52:54.699Z,23.33
2022-12-20T06:55:21.366Z,23.08
2022-12-20T06:57:47.929Z,23.40
2022-12-20T07:00:15.139Z,24.08
2022-12-20T07:02:41.840Z,23.15
2022-12-20T07:05:08.623Z,22.38
2022-12-20T07:07:40.197Z,23.15
2022-12-20T07:10:11.096Z,24.13
2022-12-20T07:12:41.037Z,23.73
2022-12-20T07:15:10.733Z,24.70
2022-12-20T07:17:37.274Z,23.48
2022-12-20T07:20:09.115Z,24.17
2022-12-20T07:22:39.430Z,23.10
2022-12-20T07:25:06.178Z,24.58
2022-12-20T07:27:32.696Z,23.98
2022-12-20T07:29:59.244Z,24.70
2022-12-20T07:32:25.876Z,25.05
2022-12-20T07:34:52.652Z,24.80
2022-12-20T07:37:19.562Z,24.40
2022-12-20T07:39:46.057Z,24.52
2022-12-20T07:42:12.638Z,24.92
2022-12-20T07:44:39.189Z,26.40
2022-12-20T07:47:06.041Z,26.10
2022-12-20T07:49:32.623Z,25.30
2022-12-20T07:52:02.616Z,27.20
2022-12-20T07:54:33.531Z,25.57
2022-12-20T07:57:07.135Z,26.83
2022-12-20T07:59:39.832Z,25.88
2022-12-20T08:02:13.556Z,26.40
2022-12-20T08:04:40.968Z,26.30
2022-12-20T08:07:09.523Z,25.50
2022-12-20T08:09:39.848Z,26.07
2022-12-20T08:12:10.545Z,26.42
2022-12-20T08:14:38.009Z,26.73
2022-12-20T08:17:04.680Z,26.48
2022-12-20T08:19:32.683Z,26.80
2022-12-20T08:21:59.696Z,26.87
2022-12-20T08:24:26.302Z,30.08
2022-12-20T08:26:52.943Z,26.85
2022-12-20T08:29:19.455Z,28.95
2022-12-20T08:31:49.987Z,26.73
2022-12-20T08:34:18.259Z,28.45
2022-12-20T08:36:45.074Z,26.70
2022-12-20T08:39:11.767Z,28.05
2022-12-20T08:41:38.569Z,28.40
2022-12-20T08:44:06.201Z,27.02
2022-12-20T08:46:33.120Z,28.95
2022-12-20T08:51:26.284Z,28.25
2022-12-20T08:53:53.073Z,27.98
2022-12-20T08:56:20.229Z,28.25
2022-12-20T08:58:47.410Z,28.10
2022-12-20T09:01:16.608Z,27.80
2022-12-20T09:03:44.017Z,26.67
2022-12-20T09:06:13.813Z,28.05
2022-12-20T09:08:40.702Z,27.75
2022-12-20T09:11:13.572Z,25.95
2022-12-20T09:13:44.245Z,27.83
2022-12-20T09:16:13.118Z,26.30
2022-12-20T09:18:39.821Z,26.77
2022-12-20T09:21:07.599Z,26.10
2022-12-20T09:23:35.294Z,27.15
2022-12-20T09:26:04.108Z,27.90
2022-12-20T09:28:31.607Z,26.65
2022-12-20T09:31:00.471Z,26.77
2022-12-20T09:33:28.780Z,26.45
2022-12-20T09:35:55.503Z,26.42
2022-12-20T09:38:22.119Z,28.38
2022-12-20T09:40:53.105Z,28.08
2022-12-20T09:43:21.529Z,27.15
2022-12-20T09:45:52.825Z,27.08
2022-12-20T09:48:24.198Z,27.65
2022-12-20T09:51:29.184Z,26.33
2022-12-20T09:53:55.621Z,25.83
2022-12-20T09:56:35.127Z,27.10
2022-12-20T09:59:06.077Z,25.58
2022-12-20T10:01:39.540Z,26.85
2022-12-20T10:04:13.640Z,26.00
2022-12-20T10:07:10.746Z,28.00
2022-12-20T10:09:37.201Z,26.60
2022-12-20T10:12:21.217Z,27.73
2022-12-20T10:15:18.208Z,26.95
2022-12-20T10:17:53.886Z,26.17
2022-12-20T10:20:23.263Z,26.17
2022-12-20T10:23:07.481Z,28.40
2022-12-20T10:25:35.129Z,25.20
2022-12-20T10:28:12.989Z,25.87
2022-12-20T10:30:39.565Z,26.85
2022-12-20T10:33:06.048Z,27.65
2022-12-20T10:35:40.544Z,28.45
2022-12-20T10:38:14.421Z,26.15
2022-12-20T10:41:20.693Z,27.52
2022-12-20T10:43:49.741Z,26.73
2022-12-20T10:46:19.607Z,27.70
2022-12-20T10:48:48.261Z,26.92
2022-12-20T10:51:21.597Z,27.80
2022-12-20T10:53:55.959Z,25.80
2022-12-20T10:56:31.563Z,28.27
2022-12-20T10:59:02.780Z,26.67
2022-12-20T11:01:33.850Z,27.85
2022-12-20T11:04:05.487Z,27.88
2022-12-20T11:09:36.731Z,28.25
2022-12-20T11:12:15.678Z,28.63
2022-12-20T11:14:46.313Z,28.40
2022-12-20T11:17:51.565Z,29.38
2022-12-20T11:20:27.010Z,27.42
2022-12-20T11:23:18.298Z,27.08
2022-12-20T11:25:50.618Z,28.07
2022-12-20T11:28:42.103Z,29.10
2022-12-20T11:31:50.436Z,29.20
2022-12-20T11:34:36.932Z,27.90
2022-12-20T11:37:24.130Z,27.88
2022-12-20T11:40:06.432Z,27.23
2022-12-20T11:42:55.897Z,28.73
2022-12-20T11:45:37.384Z,27.33
2022-12-20T11:48:42.621Z,27.33
2022-12-20T11:51:13.556Z,27.67
2022-12-20T11:53:54.732Z,28.50
2022-12-20T11:56:28.054Z,28.15
2022-12-20T11:59:04.286Z,26.20
2022-12-20T12:01:40.908Z,29.65
2022-12-20T12:06:48.605Z,27.92
2022-12-20T12:09:25.630Z,28.53
2022-12-20T12:12:09.670Z,26.67
2022-12-20T12:14:51.441Z,27.98
2022-12-20T12:17:47.177Z,27.70
2022-12-20T12:20:32.204Z,28.08
2022-12-20T12:23:12.598Z,27.93
2022-12-20T12:25:39.096Z,29.45
2022-12-20T12:28:05.787Z,29.23
2022-12-20T12:30:41.208Z,28.88
2022-12-20T12:33:23.990Z,29.75
2022-12-20T12:36:32.705Z,28.45
2022-12-20T12:39:17.670Z,27.45
2022-12-20T12:42:08.767Z,29.13
2022-12-20T12:44:41.260Z,28.45
2022-12-20T12:47:23.692Z,28.83
2022-12-20T12:49:53.220Z,28.40
2022-12-20T12:52:42.263Z,27.10
2022-12-20T12:55:45.777Z,28.40
2022-12-20T12:58:24.398Z,27.25
2022-12-20T13:00:56.595Z,28.80
2022-12-20T13:04:01.812Z,29.73
2022-12-20T13:06:28.409Z,30.80
2022-12-20T13:09:00.801Z,27.90
2022-12-20T13:11:36.663Z,29.00
2022-12-20T13:14:31.961Z,28.93
2022-12-20T13:17:13.760Z,29.63
2022-12-20T13:19:51.806Z,28.50
2022-12-20T13:22:25.513Z,28.52
2022-12-20T13:25:04.414Z,28.27
2022-12-20T13:27:39.308Z,29.52
2022-12-20T13:30:14.785Z,27.50
2022-12-20T13:32:47.075Z,28.70
2022-12-20T13:35:25.987Z,29.35
2022-12-20T13:38:07.479Z,29.37
2022-12-20T13:40:50.272Z,30.67
2022-12-20T13:43:19.667Z,30.07
2022-12-20T13:45:49.605Z,29.07
2022-12-20T13:48:19.775Z,30.43
2022-12-20T13:50:52.381Z,31.10
2022-12-20T13:53:25.319Z,29.58
2022-12-20T13:55:51.835Z,29.97
2022-12-20T13:58:23.941Z,29.50
2022-12-20T14:00:52.849Z,28.50
2022-12-20T14:03:29.240Z,30.02
2022-12-20T14:05:59.545Z,31.40
2022-12-20T14:08:31.386Z,30.40
2022-12-20T14:11:16.081Z,29.42
2022-12-20T14:13:42.763Z,29.80
2022-12-20T14:16:17.934Z,30.45
2022-12-20T14:19:00.283Z,29.17
2022-12-20T14:21:27.894Z,28.52
2022-12-20T14:23:57.528Z,30.02
2022-12-20T14:26:48.094Z,30.95
2022-12-20T14:29:19.668Z,28.85
2022-12-20T14:31:48.544Z,29.92
2022-12-20T14:34:29.446Z,29.20
2022-12-20T14:37:25.342Z,29.77
2022-12-20T14:39:59.006Z,31.50
2022-12-20T14:42:29.784Z,29.67
2022-12-20T14:45:06.875Z,30.57
2022-12-20T14:47:33.601Z,30.98
2022-12-20T14:50:02.576Z,31.20
2022-12-20T14:52:32.173Z,30.73
2022-12-20T14:55:10.020Z,28.83
2022-12-20T14:57:37.024Z,28.50
2022-12-20T15:00:12.142Z,23.85
2022-12-20T15:02:56.978Z,30.15
2022-12-20T15:05:36.051Z,31.00
2022-12-20T15:08:28.515Z,28.92
2022-12-20T15:11:10.462Z,29.90
2022-12-20T15:13:40.095Z,30.13
2022-12-20T15:16:20.017Z,30.75
2022-12-20T15:18:58.441Z,29.67
2022-12-20T15:21:37.368Z,31.25
2022-12-20T15:24:09.671Z,29.67
2022-12-20T15:26:37.423Z,29.60
2022-12-20T15:29:04.700Z,29.45
2022-12-20T15:31:34.960Z,31.20
2022-12-20T15:34:10.369Z,31.05
2022-12-20T15:36:38.406Z,29.23
2022-12-20T15:39:13.507Z,28.42
2022-12-20T15:41:43.706Z,29.92
2022-12-20T15:44:17.374Z,30.05
2022-12-20T15:46:44.594Z,29.67
2022-12-20T15:49:19.667Z,30.63
2022-12-20T15:51:48.113Z,31.45
2022-12-20T15:54:32.733Z,29.08
2022-12-20T15:57:03.176Z,29.20
2022-12-20T16:02:22.520Z,28.60
2022-12-20T16:04:49.208Z,28.70
2022-12-20T16:07:16.815Z,28.83
2022-12-20T16:09:43.947Z,31.17
2022-12-20T16:12:18.467Z,29.88
2022-12-20T16:14:45.050Z,29.55
2022-12-20T16:17:15.498Z,30.95
2022-12-20T16:19:42.892Z,28.08
2022-12-20T16:22:16.691Z,30.52
2022-12-20T16:24:43.888Z,30.92
2022-12-20T16:27:10.516Z,34.53
2022-12-20T16:29:37.050Z,29.98
2022-12-20T16:32:08.064Z,30.92
2022-12-20T16:34:34.666Z,29.33
2022-12-20T16:37:01.137Z,32.70
2022-12-20T16:39:27.684Z,29.67
2022-12-20T16:41:54.640Z,30.67
2022-12-20T16:46:47.653Z,28.48
2022-12-20T16:49:20.103Z,28.90
2022-12-20T16:51:48.672Z,28.63
2022-12-20T16:54:19.694Z,29.25
2022-12-20T16:56:52.089Z,30.02
2022-12-20T16:59:21.329Z,28.90
2022-12-20T17:01:51.005Z,29.50
2022-12-20T17:04:19.200Z,29.45
2022-12-20T17:06:47.626Z,29.98
2022-12-20T17:09:16.243Z,30.35
2022-12-20T17:11:43.454Z,28.42
2022-12-20T17:14:13.055Z,29.40
2022-12-20T17:16:40.689Z,27.85
2022-12-20T17:19:07.523Z,31.02
2022-12-20T17:24:30.392Z,31.35
2022-12-20T17:26:57.080Z,29.23
2022-12-20T17:29:23.627Z,29.30
2022-12-20T17:31:50.259Z,29.58
2022-12-20T17:34:21.916Z,29.55
2022-12-20T17:36:50.697Z,30.00
2022-12-20T17:39:17.667Z,29.67
2022-12-20T17:44:21.271Z,28.50
2022-12-20T17:46:48.347Z,29.65
2022-12-20T17:56:45.171Z,27.55
2022-12-20T17:59:13.267Z,29.20
2022-12-20T18:01:41.019Z,28.80
2022-12-20T18:04:10.609Z,29.25
2022-12-20T18:06:39.074Z,30.92
2022-12-20T18:09:10.341Z,28.25
2022-12-20T18:11:36.821Z,27.98
2022-12-20T18:14:03.636Z,23.15
2022-12-20T18:16:32.236Z,29.63
2022-12-20T18:18:58.808Z,28.88
2022-12-20T18:21:26.592Z,28.40
2022-12-20T18:23:54.576Z,28.40
2022-12-20T18:26:30.628Z,28.00
2022-12-20T18:28:59.726Z,29.02
2022-12-20T18:31:28.143Z,29.48
2022-12-20T18:33:58.352Z,31.05
2022-12-20T18:36:30.435Z,29.50
2022-12-20T18:38:58.908Z,28.30
2022-12-20T18:41:28.193Z,27.65
2022-12-20T18:43:58.597Z,29.42
2022-12-20T18:46:25.521Z,27.52
2022-12-20T18:51:22.411Z,28.60
2022-12-20T18:53:50.512Z,29.25
2022-12-20T18:56:24.915Z,27.88
2022-12-20T18:58:52.158Z,27.42
2022-12-20T19:01:22.281Z,28.67
2022-12-20T19:03:50.698Z,28.85
2022-12-20T19:06:18.536Z,29.52
2022-12-20T19:08:45.344Z,27.20
2022-12-20T19:11:14.903Z,29.08
2022-12-20T19:13:41.899Z,27.38
2022-12-20T19:18:37.676Z,26.77
2022-12-20T19:21:09.420Z,28.05
2022-12-20T19:23:37.481Z,28.60
2022-12-20T19:26:06.891Z,25.45
2022-12-20T19:28:34.294Z,29.00
2022-12-20T19:31:19.184Z,27.33
2022-12-20T19:33:48.187Z,28.27
2022-12-20T19:36:25.033Z,26.65
2022-12-20T19:38:55.761Z,26.95
2022-12-20T19:41:23.857Z,26.17
2022-12-20T19:43:51.730Z,26.63
2022-12-20T19:46:28.137Z,27.40
2022-12-20T19:48:56.433Z,26.42
2022-12-20T19:51:23.477Z,26.23
2022-12-20T19:56:20.919Z,27.67
2022-12-20T19:58:47.944Z,27.42
2022-12-20T20:03:41.794Z,26.58
2022-12-20T20:06:08.926Z,28.33
2022-12-20T20:08:35.723Z,26.73
2022-12-20T20:11:09.500Z,24.60
2022-12-20T20:13:37.152Z,28.15
2022-12-20T20:18:36.617Z,27.17
2022-12-20T20:21:12.347Z,27.17
2022-12-20T20:23:39.363Z,26.83
2022-12-20T20:28:40.288Z,25.70
2022-12-20T20:31:11.997Z,28.85
2022-12-20T20:33:38.735Z,25.50
2022-12-20T20:36:06.001Z,27.63
2022-12-20T20:38:34.193Z,27.08
2022-12-20T20:41:00.780Z,27.42
2022-12-20T20:43:28.322Z,29.25
2022-12-20T20:45:54.900Z,27.55
2022-12-20T20:48:21.838Z,28.77
2022-12-20T20:50:48.329Z,27.17
2022-12-20T20:53:14.804Z,27.80
2022-12-20T20:55:41.654Z,26.85
2022-12-20T20:58:08.182Z,27.20
2022-12-20T21:00:35.033Z,22.58
2022-12-20T21:03:01.759Z,23.85
2022-12-20T21:08:18.200Z,27.40
2022-12-20T21:10:44.819Z,26.63
2022-12-20T21:13:12.175Z,27.10
2022-12-20T21:15:40.830Z,28.83
2022-12-20T21:18:07.328Z,26.90
2022-12-20T21:20:34.059Z,27.33
2022-12-20T21:23:01.507Z,27.92
2022-12-20T21:25:28.379Z,28.10
2022-12-20T21:27:56.721Z,28.30
2022-12-20T21:30:23.810Z,25.67
2022-12-20T21:32:50.818Z,28.48
2022-12-20T21:37:43.871Z,25.75
2022-12-20T21:40:10.872Z,27.67
2022-12-20T21:45:04.820Z,25.58
2022-12-20T21:47:31.445Z,26.17
2022-12-20T21:49:57.899Z,27.50
2022-12-20T21:52:24.460Z,27.05
2022-12-20T21:54:51.008Z,25.98
2022-12-20T21:57:17.480Z,20.75
2022-12-20T21:59:43.965Z,25.70
2022-12-20T22:04:39.286Z,27.75
2022-12-20T22:07:05.922Z,31.65
2022-12-20T22:09:32.434Z,27.50
2022-12-20T22:11:58.920Z,28.45
2022-12-20T22:14:26.007Z,27.42
2022-12-20T22:19:21.307Z,26.03
2022-12-20T22:21:53.767Z,26.63
2022-12-20T22:24:24.122Z,27.50
2022-12-20T22:26:50.722Z,26.65
2022-12-20T22:29:17.226Z,27.33
2022-12-20T22:31:43.999Z,27.92
2022-12-20T22:34:10.560Z,27.33
2022-12-20T22:36:37.214Z,25.95
2022-12-20T22:39:04.063Z,26.05
2022-12-20T22:41:34.655Z,26.13
2022-12-20T22:44:01.894Z,26.27
2022-12-20T22:48:57.015Z,26.70
2022-12-20T22:51:27.094Z,25.92
2022-12-20T22:53:53.847Z,23.98
2022-12-20T22:56:21.725Z,25.60
2022-12-20T22:58:49.534Z,26.77
2022-12-20T23:01:19.679Z,26.15
2022-12-20T23:03:46.752Z,24.70
2022-12-20T23:08:41.005Z,24.52
2022-12-20T23:11:40.945Z,26.33
2022-12-20T23:14:30.490Z,26.55
2022-12-20T23:16:57.296Z,27.17
2022-12-20T23:19:23.728Z,25.48
2022-12-20T23:22:08.709Z,26.80
2022-12-20T23:24:35.236Z,25.05
2022-12-20T23:27:02.313Z,23.83
2022-12-20T23:29:29.965Z,24.90
2022-12-20T23:31:56.746Z,24.97
2022-12-20T23:34:23.396Z,25.35
2022-12-20T23:36:49.881Z,25.08
2022-12-20T23:39:17.285Z,26.52
2022-12-20T23:41:43.703Z,25.52
2022-12-20T23:44:10.179Z,25.83
2022-12-20T23:46:36.648Z,25.63
2022-12-20T23:49:03.110Z,25.42
2022-12-20T23:51:29.725Z,24.52
2022-12-20T23:53:56.207Z,25.42
2022-12-20T23:56:23.393Z,24.70
2022-12-20T23:58:53.232Z,25.52
